sensor_id;sensor_type;location;lat;lon;timestamp;temperature;humidity
30371;DHT22;17164;48.590;11.410;2023-06-26T00:02:14;15.80;99.90
30371;DHT22;17164;48.590;11.410;2023-06-26T00:04:39;15.80;99.90
30371;DHT22;17164;48.590;11.410;2023-06-26T00:07:05;15.80;99.90
30371;DHT22;17164;48.590;11.410;2023-06-26T00:09:31;15.70;99.90
30371;DHT22;17164;48.590;11.410;2023-06-26T00:11:57;15.80;99.90
30371;DHT22;17164;48.590;11.410;2023-06-26T00:14:22;15.70;99.90
30371;DHT22;17164;48.590;11.410;2023-06-26T00:16:48;15.70;99.90
30371;DHT22;17164;48.590;11.410;2023-06-26T00:19:16;15.60;99.90
30371;DHT22;17164;48.590;11.410;2023-06-26T00:21:42;15.60;99.90
30371;DHT22;17164;48.590;11.410;2023-06-26T00:24:14;15.60;99.90
30371;DHT22;17164;48.590;11.410;2023-06-26T00:26:40;15.50;99.90
30371;DHT22;17164;48.590;11.410;2023-06-26T00:29:05;15.40;99.90
30371;DHT22;17164;48.590;11.410;2023-06-26T00:31:31;15.40;99.90
30371;DHT22;17164;48.590;11.410;2023-06-26T00:33:57;15.40;99.90
30371;DHT22;17164;48.590;11.410;2023-06-26T00:36:22;15.40;99.90
30371;DHT22;17164;48.590;11.410;2023-06-26T00:38:49;15.30;99.90
30371;DHT22;17164;48.590;11.410;2023-06-26T00:41:15;15.40;99.90
30371;DHT22;17164;48.590;11.410;2023-06-26T00:43:40;15.30;99.90
30371;DHT22;17164;48.590;11.410;2023-06-26T00:46:09;15.30;99.90
30371;DHT22;17164;48.590;11.410;2023-06-26T00:48:35;15.30;99.90
30371;DHT22;17164;48.590;11.410;2023-06-26T00:51:01;15.30;99.90
30371;DHT22;17164;48.590;11.410;2023-06-26T00:53:27;15.20;99.90
30371;DHT22;17164;48.590;11.410;2023-06-26T00:55:53;15.20;99.90
30371;DHT22;17164;48.590;11.410;2023-06-26T00:58:21;15.20;99.90
30371;DHT22;17164;48.590;11.410;2023-06-26T01:00:49;15.20;99.90
30371;DHT22;17164;48.590;11.410;2023-06-26T01:03:15;15.10;99.90
30371;DHT22;17164;48.590;11.410;2023-06-26T01:05:41;15.10;99.90
30371;DHT22;17164;48.590;11.410;2023-06-26T01:08:12;15.10;99.90
30371;DHT22;17164;48.590;11.410;2023-06-26T01:10:38;15.10;99.90
30371;DHT22;17164;48.590;11.410;2023-06-26T01:13:04;15.00;99.90
30371;DHT22;17164;48.590;11.410;2023-06-26T01:15:29;14.90;99.90
30371;DHT22;17164;48.590;11.410;2023-06-26T01:17:57;14.90;99.90
30371;DHT22;17164;48.590;11.410;2023-06-26T01:20:25;14.90;99.90
30371;DHT22;17164;48.590;11.410;2023-06-26T01:25:58;14.80;99.90
30371;DHT22;17164;48.590;11.410;2023-06-26T01:28:27;14.70;99.90
30371;DHT22;17164;48.590;11.410;2023-06-26T01:30:54;14.70;99.90
30371;DHT22;17164;48.590;11.410;2023-06-26T01:33:20;14.60;99.90
30371;DHT22;17164;48.590;11.410;2023-06-26T01:35:46;14.60;99.90
30371;DHT22;17164;48.590;11.410;2023-06-26T01:38:21;14.60;99.90
30371;DHT22;17164;48.590;11.410;2023-06-26T01:40:49;14.60;99.90
30371;DHT22;17164;48.590;11.410;2023-06-26T01:43:29;14.60;99.90
30371;DHT22;17164;48.590;11.410;2023-06-26T01:46:08;14.50;99.90
30371;DHT22;17164;48.590;11.410;2023-06-26T01:48:44;14.50;99.90
30371;DHT22;17164;48.590;11.410;2023-06-26T01:51:12;14.50;99.90
30371;DHT22;17164;48.590;11.410;2023-06-26T01:53:41;14.40;99.90
30371;DHT22;17164;48.590;11.410;2023-06-26T01:56:14;14.40;99.90
30371;DHT22;17164;48.590;11.410;2023-06-26T01:58:43;14.40;99.90
30371;DHT22;17164;48.590;11.410;2023-06-26T02:01:11;14.30;99.90
30371;DHT22;17164;48.590;11.410;2023-06-26T02:03:37;14.30;99.90
30371;DHT22;17164;48.590;11.410;2023-06-26T02:06:03;14.30;99.90
30371;DHT22;17164;48.590;11.410;2023-06-26T02:08:28;14.30;99.90
30371;DHT22;17164;48.590;11.410;2023-06-26T02:10:54;14.20;99.90
30371;DHT22;17164;48.590;11.410;2023-06-26T02:13:19;14.30;99.90
30371;DHT22;17164;48.590;11.410;2023-06-26T02:15:45;14.20;99.90
30371;DHT22;17164;48.590;11.410;2023-06-26T02:18:11;14.20;99.90
30371;DHT22;17164;48.590;11.410;2023-06-26T02:20:36;14.20;99.90
30371;DHT22;17164;48.590;11.410;2023-06-26T02:23:02;14.20;99.90
30371;DHT22;17164;48.590;11.410;2023-06-26T02:25:27;14.20;99.90
30371;DHT22;17164;48.590;11.410;2023-06-26T02:27:53;14.20;99.90
30371;DHT22;17164;48.590;11.410;2023-06-26T02:30:19;14.20;99.90
30371;DHT22;17164;48.590;11.410;2023-06-26T02:32:44;14.20;99.90
30371;DHT22;17164;48.590;11.410;2023-06-26T02:35:10;14.20;99.90
30371;DHT22;17164;48.590;11.410;2023-06-26T02:37:36;14.20;99.90
30371;DHT22;17164;48.590;11.410;2023-06-26T02:40:02;14.20;99.90
30371;DHT22;17164;48.590;11.410;2023-06-26T02:42:29;14.10;99.90
30371;DHT22;17164;48.590;11.410;2023-06-26T02:44:55;14.10;99.90
30371;DHT22;17164;48.590;11.410;2023-06-26T02:47:20;14.10;99.90
30371;DHT22;17164;48.590;11.410;2023-06-26T02:49:46;14.10;99.90
30371;DHT22;17164;48.590;11.410;2023-06-26T02:52:12;14.10;99.90
30371;DHT22;17164;48.590;11.410;2023-06-26T02:54:37;14.10;99.90
30371;DHT22;17164;48.590;11.410;2023-06-26T02:57:03;14.00;99.90
30371;DHT22;17164;48.590;11.410;2023-06-26T02:59:28;13.90;99.90
30371;DHT22;17164;48.590;11.410;2023-06-26T03:01:54;13.90;99.90
30371;DHT22;17164;48.590;11.410;2023-06-26T03:04:20;13.90;99.90
30371;DHT22;17164;48.590;11.410;2023-06-26T03:06:47;13.90;99.90
30371;DHT22;17164;48.590;11.410;2023-06-26T03:09:12;13.80;99.90
30371;DHT22;17164;48.590;11.410;2023-06-26T03:11:38;13.70;99.90
30371;DHT22;17164;48.590;11.410;2023-06-26T03:14:03;13.70;99.90
30371;DHT22;17164;48.590;11.410;2023-06-26T03:16:29;13.70;99.90
30371;DHT22;17164;48.590;11.410;2023-06-26T03:18:54;13.70;99.90
30371;DHT22;17164;48.590;11.410;2023-06-26T03:21:20;13.70;99.90
30371;DHT22;17164;48.590;11.410;2023-06-26T03:23:46;13.60;99.90
30371;DHT22;17164;48.590;11.410;2023-06-26T03:26:11;13.60;99.90
30371;DHT22;17164;48.590;11.410;2023-06-26T03:28:40;13.60;99.90
30371;DHT22;17164;48.590;11.410;2023-06-26T03:31:05;13.60;99.90
30371;DHT22;17164;48.590;11.410;2023-06-26T03:33:31;13.60;99.90
30371;DHT22;17164;48.590;11.410;2023-06-26T03:35:57;13.60;99.90
30371;DHT22;17164;48.590;11.410;2023-06-26T03:38:22;13.60;99.90
30371;DHT22;17164;48.590;11.410;2023-06-26T03:40:49;13.60;99.90
30371;DHT22;17164;48.590;11.410;2023-06-26T03:43:15;13.60;99.90
30371;DHT22;17164;48.590;11.410;2023-06-26T03:45:40;13.60;99.90
30371;DHT22;17164;48.590;11.410;2023-06-26T03:48:06;13.60;99.90
30371;DHT22;17164;48.590;11.410;2023-06-26T03:50:33;13.50;99.90
30371;DHT22;17164;48.590;11.410;2023-06-26T03:52:59;13.50;99.90
30371;DHT22;17164;48.590;11.410;2023-06-26T03:55:25;13.50;99.90
30371;DHT22;17164;48.590;11.410;2023-06-26T03:57:50;13.60;99.90
30371;DHT22;17164;48.590;11.410;2023-06-26T04:00:16;13.60;99.90
30371;DHT22;17164;48.590;11.410;2023-06-26T04:02:42;13.60;99.90
30371;DHT22;17164;48.590;11.410;2023-06-26T04:05:07;13.70;99.90
30371;DHT22;17164;48.590;11.410;2023-06-26T04:07:33;13.70;99.90
30371;DHT22;17164;48.590;11.410;2023-06-26T04:10:00;13.70;99.90
30371;DHT22;17164;48.590;11.410;2023-06-26T04:12:26;13.80;99.90
30371;DHT22;17164;48.590;11.410;2023-06-26T04:14:52;13.90;99.90
30371;DHT22;17164;48.590;11.410;2023-06-26T04:17:17;13.80;99.90
30371;DHT22;17164;48.590;11.410;2023-06-26T04:19:43;13.90;99.90
30371;DHT22;17164;48.590;11.410;2023-06-26T04:22:09;13.90;99.90
30371;DHT22;17164;48.590;11.410;2023-06-26T04:24:34;14.00;99.90
30371;DHT22;17164;48.590;11.410;2023-06-26T04:27:00;14.00;99.90
30371;DHT22;17164;48.590;11.410;2023-06-26T04:29:26;14.00;99.90
30371;DHT22;17164;48.590;11.410;2023-06-26T04:31:53;14.10;99.90
30371;DHT22;17164;48.590;11.410;2023-06-26T04:34:24;14.20;99.90
30371;DHT22;17164;48.590;11.410;2023-06-26T04:36:50;14.30;99.90
30371;DHT22;17164;48.590;11.410;2023-06-26T04:39:16;14.30;99.90
30371;DHT22;17164;48.590;11.410;2023-06-26T04:41:41;14.40;99.90
30371;DHT22;17164;48.590;11.410;2023-06-26T04:44:07;14.50;99.90
30371;DHT22;17164;48.590;11.410;2023-06-26T04:46:33;14.60;99.90
30371;DHT22;17164;48.590;11.410;2023-06-26T04:48:58;14.70;99.90
30371;DHT22;17164;48.590;11.410;2023-06-26T04:51:27;14.80;99.90
30371;DHT22;17164;48.590;11.410;2023-06-26T04:53:54;14.90;99.90
30371;DHT22;17164;48.590;11.410;2023-06-26T04:56:19;14.90;99.90
30371;DHT22;17164;48.590;11.410;2023-06-26T04:58:45;15.00;99.90
30371;DHT22;17164;48.590;11.410;2023-06-26T05:01:11;15.10;99.90
30371;DHT22;17164;48.590;11.410;2023-06-26T05:03:39;15.20;99.90
30371;DHT22;17164;48.590;11.410;2023-06-26T05:06:04;15.30;99.90
30371;DHT22;17164;48.590;11.410;2023-06-26T05:08:30;15.40;99.90
30371;DHT22;17164;48.590;11.410;2023-06-26T05:10:55;15.50;99.90
30371;DHT22;17164;48.590;11.410;2023-06-26T05:13:25;15.60;99.90
30371;DHT22;17164;48.590;11.410;2023-06-26T05:15:52;15.70;99.90
30371;DHT22;17164;48.590;11.410;2023-06-26T05:18:18;15.80;99.90
30371;DHT22;17164;48.590;11.410;2023-06-26T05:20:44;15.90;99.90
30371;DHT22;17164;48.590;11.410;2023-06-26T05:23:13;16.00;99.90
30371;DHT22;17164;48.590;11.410;2023-06-26T05:25:39;16.10;99.90
30371;DHT22;17164;48.590;11.410;2023-06-26T05:28:05;16.20;99.90
30371;DHT22;17164;48.590;11.410;2023-06-26T05:30:32;16.30;99.90
30371;DHT22;17164;48.590;11.410;2023-06-26T05:33:02;16.30;99.90
30371;DHT22;17164;48.590;11.410;2023-06-26T05:35:30;16.40;99.90
30371;DHT22;17164;48.590;11.410;2023-06-26T05:37:57;16.50;99.90
30371;DHT22;17164;48.590;11.410;2023-06-26T05:40:24;16.70;99.90
30371;DHT22;17164;48.590;11.410;2023-06-26T05:42:50;16.80;99.90
30371;DHT22;17164;48.590;11.410;2023-06-26T05:45:16;16.90;99.90
30371;DHT22;17164;48.590;11.410;2023-06-26T05:47:42;17.10;99.90
30371;DHT22;17164;48.590;11.410;2023-06-26T05:50:10;17.10;99.90
30371;DHT22;17164;48.590;11.410;2023-06-26T05:52:36;17.20;99.90
30371;DHT22;17164;48.590;11.410;2023-06-26T05:55:04;17.30;99.90
30371;DHT22;17164;48.590;11.410;2023-06-26T05:57:30;17.40;99.90
30371;DHT22;17164;48.590;11.410;2023-06-26T05:59:56;17.40;99.90
30371;DHT22;17164;48.590;11.410;2023-06-26T06:02:22;17.60;99.90
30371;DHT22;17164;48.590;11.410;2023-06-26T06:04:48;17.70;99.90
30371;DHT22;17164;48.590;11.410;2023-06-26T06:07:14;17.70;99.90
30371;DHT22;17164;48.590;11.410;2023-06-26T06:09:40;17.80;99.90
30371;DHT22;17164;48.590;11.410;2023-06-26T06:12:06;18.00;99.90
30371;DHT22;17164;48.590;11.410;2023-06-26T06:14:33;18.10;99.90
30371;DHT22;17164;48.590;11.410;2023-06-26T06:16:58;18.30;99.90
30371;DHT22;17164;48.590;11.410;2023-06-26T06:19:24;18.40;99.90
30371;DHT22;17164;48.590;11.410;2023-06-26T06:21:49;18.50;99.90
30371;DHT22;17164;48.590;11.410;2023-06-26T06:24:15;18.70;99.90
30371;DHT22;17164;48.590;11.410;2023-06-26T06:26:41;18.90;99.90
30371;DHT22;17164;48.590;11.410;2023-06-26T06:29:06;19.00;99.90
30371;DHT22;17164;48.590;11.410;2023-06-26T06:31:32;19.10;99.90
30371;DHT22;17164;48.590;11.410;2023-06-26T06:33:57;19.30;99.90
30371;DHT22;17164;48.590;11.410;2023-06-26T06:36:23;19.40;99.90
30371;DHT22;17164;48.590;11.410;2023-06-26T06:38:49;19.60;99.90
30371;DHT22;17164;48.590;11.410;2023-06-26T06:41:14;19.80;99.90
30371;DHT22;17164;48.590;11.410;2023-06-26T06:43:41;19.90;99.90
30371;DHT22;17164;48.590;11.410;2023-06-26T06:46:06;20.10;99.90
30371;DHT22;17164;48.590;11.410;2023-06-26T06:48:32;20.20;99.90
30371;DHT22;17164;48.590;11.410;2023-06-26T06:50:58;20.30;99.90
30371;DHT22;17164;48.590;11.410;2023-06-26T06:53:23;20.40;99.90
30371;DHT22;17164;48.590;11.410;2023-06-26T06:55:49;20.60;99.90
30371;DHT22;17164;48.590;11.410;2023-06-26T06:58:15;20.70;99.90
30371;DHT22;17164;48.590;11.410;2023-06-26T07:00:42;20.90;99.90
30371;DHT22;17164;48.590;11.410;2023-06-26T07:03:08;21.00;99.90
30371;DHT22;17164;48.590;11.410;2023-06-26T07:05:35;21.10;99.90
30371;DHT22;17164;48.590;11.410;2023-06-26T07:08:01;21.20;99.90
30371;DHT22;17164;48.590;11.410;2023-06-26T07:10:27;21.30;99.90
30371;DHT22;17164;48.590;11.410;2023-06-26T07:12:52;21.50;99.90
30371;DHT22;17164;48.590;11.410;2023-06-26T07:15:18;21.60;99.90
30371;DHT22;17164;48.590;11.410;2023-06-26T07:17:43;21.80;99.90
30371;DHT22;17164;48.590;11.410;2023-06-26T07:20:09;21.90;99.90
30371;DHT22;17164;48.590;11.410;2023-06-26T07:22:40;22.10;99.90
30371;DHT22;17164;48.590;11.410;2023-06-26T07:25:06;22.20;99.90
30371;DHT22;17164;48.590;11.410;2023-06-26T07:27:37;22.40;99.90
30371;DHT22;17164;48.590;11.410;2023-06-26T07:30:03;22.50;99.90
30371;DHT22;17164;48.590;11.410;2023-06-26T07:32:29;22.60;99.90
30371;DHT22;17164;48.590;11.410;2023-06-26T07:34:55;22.80;99.90
30371;DHT22;17164;48.590;11.410;2023-06-26T07:37:21;22.90;99.90
30371;DHT22;17164;48.590;11.410;2023-06-26T07:39:48;23.10;99.90
30371;DHT22;17164;48.590;11.410;2023-06-26T07:42:14;23.20;99.90
30371;DHT22;17164;48.590;11.410;2023-06-26T07:44:41;23.30;99.90
30371;DHT22;17164;48.590;11.410;2023-06-26T07:47:06;23.40;99.90
30371;DHT22;17164;48.590;11.410;2023-06-26T07:49:32;23.50;99.30
30371;DHT22;17164;48.590;11.410;2023-06-26T07:51:58;23.60;99.50
30371;DHT22;17164;48.590;11.410;2023-06-26T07:54:23;23.70;98.90
30371;DHT22;17164;48.590;11.410;2023-06-26T07:59:23;23.80;98.10
30371;DHT22;17164;48.590;11.410;2023-06-26T08:01:50;23.90;98.10
30371;DHT22;17164;48.590;11.410;2023-06-26T08:04:18;24.00;98.30
30371;DHT22;17164;48.590;11.410;2023-06-26T08:06:44;24.10;95.30
30371;DHT22;17164;48.590;11.410;2023-06-26T08:09:09;24.30;95.60
30371;DHT22;17164;48.590;11.410;2023-06-26T08:11:35;24.40;94.80
30371;DHT22;17164;48.590;11.410;2023-06-26T08:14:01;24.40;95.00
30371;DHT22;17164;48.590;11.410;2023-06-26T08:16:26;24.50;94.20
30371;DHT22;17164;48.590;11.410;2023-06-26T08:18:52;24.60;94.10
30371;DHT22;17164;48.590;11.410;2023-06-26T08:21:18;24.70;93.60
30371;DHT22;17164;48.590;11.410;2023-06-26T08:23:43;24.80;93.70
30371;DHT22;17164;48.590;11.410;2023-06-26T08:26:09;24.90;93.90
30371;DHT22;17164;48.590;11.410;2023-06-26T08:28:34;24.90;93.50
30371;DHT22;17164;48.590;11.410;2023-06-26T08:31:00;25.00;92.90
30371;DHT22;17164;48.590;11.410;2023-06-26T08:33:26;25.00;93.20
30371;DHT22;17164;48.590;11.410;2023-06-26T08:35:52;25.20;93.20
30371;DHT22;17164;48.590;11.410;2023-06-26T08:38:17;25.30;92.80
30371;DHT22;17164;48.590;11.410;2023-06-26T08:40:43;25.40;92.30
30371;DHT22;17164;48.590;11.410;2023-06-26T08:43:09;25.50;91.10
30371;DHT22;17164;48.590;11.410;2023-06-26T08:45:35;25.60;91.00
30371;DHT22;17164;48.590;11.410;2023-06-26T08:48:01;25.70;91.20
30371;DHT22;17164;48.590;11.410;2023-06-26T08:50:30;25.80;90.80
30371;DHT22;17164;48.590;11.410;2023-06-26T08:55:52;26.00;88.00
30371;DHT22;17164;48.590;11.410;2023-06-26T08:58:19;26.30;87.70
30371;DHT22;17164;48.590;11.410;2023-06-26T09:00:45;26.30;86.90
30371;DHT22;17164;48.590;11.410;2023-06-26T09:03:12;26.50;87.10
30371;DHT22;17164;48.590;11.410;2023-06-26T09:05:38;26.60;88.50
30371;DHT22;17164;48.590;11.410;2023-06-26T09:08:04;26.70;84.60
30371;DHT22;17164;48.590;11.410;2023-06-26T09:10:29;26.80;84.20
30371;DHT22;17164;48.590;11.410;2023-06-26T09:12:56;26.90;81.90
30371;DHT22;17164;48.590;11.410;2023-06-26T09:15:23;26.90;82.30
30371;DHT22;17164;48.590;11.410;2023-06-26T09:17:49;27.00;82.70
30371;DHT22;17164;48.590;11.410;2023-06-26T09:20:15;27.00;80.20
30371;DHT22;17164;48.590;11.410;2023-06-26T09:22:42;27.10;80.40
30371;DHT22;17164;48.590;11.410;2023-06-26T09:25:09;27.10;81.00
30371;DHT22;17164;48.590;11.410;2023-06-26T09:27:36;27.20;79.80
30371;DHT22;17164;48.590;11.410;2023-06-26T09:30:03;27.30;79.50
30371;DHT22;17164;48.590;11.410;2023-06-26T09:32:29;27.40;77.60
30371;DHT22;17164;48.590;11.410;2023-06-26T09:34:54;27.50;79.70
30371;DHT22;17164;48.590;11.410;2023-06-26T09:37:26;27.70;79.90
30371;DHT22;17164;48.590;11.410;2023-06-26T09:39:51;27.80;78.20
30371;DHT22;17164;48.590;11.410;2023-06-26T09:42:18;27.90;77.80
30371;DHT22;17164;48.590;11.410;2023-06-26T09:44:46;28.00;75.30
30371;DHT22;17164;48.590;11.410;2023-06-26T09:47:11;28.10;75.00
30371;DHT22;17164;48.590;11.410;2023-06-26T09:49:41;28.20;73.50
30371;DHT22;17164;48.590;11.410;2023-06-26T09:52:08;28.20;73.80
30371;DHT22;17164;48.590;11.410;2023-06-26T09:54:34;28.30;73.90
30371;DHT22;17164;48.590;11.410;2023-06-26T09:57:11;28.40;71.20
30371;DHT22;17164;48.590;11.410;2023-06-26T09:59:37;28.50;70.60
30371;DHT22;17164;48.590;11.410;2023-06-26T10:02:03;28.60;69.10
30371;DHT22;17164;48.590;11.410;2023-06-26T10:04:28;28.70;69.00
30371;DHT22;17164;48.590;11.410;2023-06-26T10:06:56;28.70;70.10
30371;DHT22;17164;48.590;11.410;2023-06-26T10:09:23;28.80;68.20
30371;DHT22;17164;48.590;11.410;2023-06-26T10:12:02;28.90;66.90
30371;DHT22;17164;48.590;11.410;2023-06-26T10:14:35;28.90;68.80
30371;DHT22;17164;48.590;11.410;2023-06-26T10:17:04;29.00;67.80
30371;DHT22;17164;48.590;11.410;2023-06-26T10:19:32;29.00;68.00
30371;DHT22;17164;48.590;11.410;2023-06-26T10:21:58;29.10;68.40
30371;DHT22;17164;48.590;11.410;2023-06-26T10:24:26;29.20;67.30
30371;DHT22;17164;48.590;11.410;2023-06-26T10:27:31;29.20;67.10
30371;DHT22;17164;48.590;11.410;2023-06-26T10:29:54;29.30;65.60
30371;DHT22;17164;48.590;11.410;2023-06-26T10:32:24;29.30;64.40
30371;DHT22;17164;48.590;11.410;2023-06-26T10:34:51;29.40;63.10
30371;DHT22;17164;48.590;11.410;2023-06-26T10:37:16;29.40;63.60
30371;DHT22;17164;48.590;11.410;2023-06-26T10:39:47;29.50;65.10
30371;DHT22;17164;48.590;11.410;2023-06-26T10:42:15;29.60;64.70
30371;DHT22;17164;48.590;11.410;2023-06-26T10:44:42;29.60;61.20
30371;DHT22;17164;48.590;11.410;2023-06-26T10:47:09;29.70;60.60
30371;DHT22;17164;48.590;11.410;2023-06-26T10:49:36;29.80;60.10
30371;DHT22;17164;48.590;11.410;2023-06-26T10:52:04;29.90;61.90
30371;DHT22;17164;48.590;11.410;2023-06-26T10:54:31;29.90;60.00
30371;DHT22;17164;48.590;11.410;2023-06-26T10:56:57;30.00;59.60
30371;DHT22;17164;48.590;11.410;2023-06-26T10:59:27;30.00;61.60
30371;DHT22;17164;48.590;11.410;2023-06-26T11:01:56;30.10;60.10
30371;DHT22;17164;48.590;11.410;2023-06-26T11:04:44;30.10;59.40
30371;DHT22;17164;48.590;11.410;2023-06-26T11:07:23;30.20;58.80
30371;DHT22;17164;48.590;11.410;2023-06-26T11:09:59;30.20;59.20
30371;DHT22;17164;48.590;11.410;2023-06-26T11:12:42;30.30;58.60
30371;DHT22;17164;48.590;11.410;2023-06-26T11:15:09;30.30;58.90
30371;DHT22;17164;48.590;11.410;2023-06-26T11:17:36;30.40;59.50
30371;DHT22;17164;48.590;11.410;2023-06-26T11:20:06;30.50;57.90
30371;DHT22;17164;48.590;11.410;2023-06-26T11:22:37;30.50;58.50
30371;DHT22;17164;48.590;11.410;2023-06-26T11:25:03;30.50;58.00
30371;DHT22;17164;48.590;11.410;2023-06-26T11:29:57;30.50;57.00
30371;DHT22;17164;48.590;11.410;2023-06-26T11:32:26;30.50;57.60
30371;DHT22;17164;48.590;11.410;2023-06-26T11:34:52;30.50;57.70
30371;DHT22;17164;48.590;11.410;2023-06-26T11:37:20;30.50;58.20
30371;DHT22;17164;48.590;11.410;2023-06-26T11:39:46;30.60;57.70
30371;DHT22;17164;48.590;11.410;2023-06-26T11:42:11;30.70;59.70
30371;DHT22;17164;48.590;11.410;2023-06-26T11:44:41;30.70;57.70
30371;DHT22;17164;48.590;11.410;2023-06-26T11:47:12;30.80;57.00
30371;DHT22;17164;48.590;11.410;2023-06-26T11:49:37;30.80;57.40
30371;DHT22;17164;48.590;11.410;2023-06-26T11:52:03;30.90;56.50
30371;DHT22;17164;48.590;11.410;2023-06-26T11:54:29;31.00;57.30
30371;DHT22;17164;48.590;11.410;2023-06-26T11:56:57;31.10;57.10
30371;DHT22;17164;48.590;11.410;2023-06-26T11:59:23;31.20;56.60
30371;DHT22;17164;48.590;11.410;2023-06-26T12:01:50;31.20;56.30
30371;DHT22;17164;48.590;11.410;2023-06-26T12:04:19;31.10;55.10
30371;DHT22;17164;48.590;11.410;2023-06-26T12:06:47;31.00;54.80
30371;DHT22;17164;48.590;11.410;2023-06-26T12:09:14;30.80;54.10
30371;DHT22;17164;48.590;11.410;2023-06-26T12:11:44;30.80;54.90
30371;DHT22;17164;48.590;11.410;2023-06-26T12:14:10;30.80;54.60
30371;DHT22;17164;48.590;11.410;2023-06-26T12:16:37;30.90;54.10
30371;DHT22;17164;48.590;11.410;2023-06-26T12:19:05;30.90;53.60
30371;DHT22;17164;48.590;11.410;2023-06-26T12:24:02;31.00;54.10
30371;DHT22;17164;48.590;11.410;2023-06-26T12:26:28;31.00;54.60
30371;DHT22;17164;48.590;11.410;2023-06-26T12:29:02;31.10;54.60
30371;DHT22;17164;48.590;11.410;2023-06-26T12:31:28;31.10;53.70
30371;DHT22;17164;48.590;11.410;2023-06-26T12:33:54;31.10;54.00
30371;DHT22;17164;48.590;11.410;2023-06-26T12:36:19;31.10;53.20
30371;DHT22;17164;48.590;11.410;2023-06-26T12:38:45;31.10;53.70
30371;DHT22;17164;48.590;11.410;2023-06-26T12:41:12;31.20;54.70
30371;DHT22;17164;48.590;11.410;2023-06-26T12:43:40;31.20;53.80
30371;DHT22;17164;48.590;11.410;2023-06-26T12:46:06;31.00;52.80
30371;DHT22;17164;48.590;11.410;2023-06-26T12:48:38;30.90;53.30
30371;DHT22;17164;48.590;11.410;2023-06-26T12:51:09;31.00;53.90
30371;DHT22;17164;48.590;11.410;2023-06-26T12:53:35;31.10;54.40
30371;DHT22;17164;48.590;11.410;2023-06-26T12:56:00;31.20;53.90
30371;DHT22;17164;48.590;11.410;2023-06-26T12:58:26;31.40;52.90
30371;DHT22;17164;48.590;11.410;2023-06-26T13:00:52;31.50;52.80
30371;DHT22;17164;48.590;11.410;2023-06-26T13:03:19;31.50;51.10
30371;DHT22;17164;48.590;11.410;2023-06-26T13:05:46;31.50;51.40
30371;DHT22;17164;48.590;11.410;2023-06-26T13:08:12;31.60;52.70
30371;DHT22;17164;48.590;11.410;2023-06-26T13:10:38;31.60;51.80
30371;DHT22;17164;48.590;11.410;2023-06-26T13:13:05;31.60;51.80
30371;DHT22;17164;48.590;11.410;2023-06-26T13:15:30;31.60;52.60
30371;DHT22;17164;48.590;11.410;2023-06-26T13:17:56;31.80;51.20
30371;DHT22;17164;48.590;11.410;2023-06-26T13:20:21;31.80;52.60
30371;DHT22;17164;48.590;11.410;2023-06-26T13:22:47;32.00;51.90
30371;DHT22;17164;48.590;11.410;2023-06-26T13:25:13;32.10;50.90
30371;DHT22;17164;48.590;11.410;2023-06-26T13:27:38;32.20;50.60
30371;DHT22;17164;48.590;11.410;2023-06-26T13:30:04;32.20;50.60
30371;DHT22;17164;48.590;11.410;2023-06-26T13:32:30;32.20;50.50
30371;DHT22;17164;48.590;11.410;2023-06-26T13:34:56;32.20;51.20
30371;DHT22;17164;48.590;11.410;2023-06-26T13:37:23;32.20;51.10
30371;DHT22;17164;48.590;11.410;2023-06-26T13:39:48;32.20;51.40
30371;DHT22;17164;48.590;11.410;2023-06-26T13:42:16;32.30;48.70
30371;DHT22;17164;48.590;11.410;2023-06-26T13:44:42;32.30;48.40
30371;DHT22;17164;48.590;11.410;2023-06-26T13:47:07;32.20;48.20
30371;DHT22;17164;48.590;11.410;2023-06-26T13:49:33;32.10;48.80
30371;DHT22;17164;48.590;11.410;2023-06-26T13:51:59;32.10;49.20
30371;DHT22;17164;48.590;11.410;2023-06-26T13:54:24;32.20;50.20
30371;DHT22;17164;48.590;11.410;2023-06-26T13:56:50;32.20;49.80
30371;DHT22;17164;48.590;11.410;2023-06-26T13:59:15;32.20;49.00
30371;DHT22;17164;48.590;11.410;2023-06-26T14:01:41;32.20;48.60
30371;DHT22;17164;48.590;11.410;2023-06-26T14:04:09;32.00;49.30
30371;DHT22;17164;48.590;11.410;2023-06-26T14:06:34;31.90;49.50
30371;DHT22;17164;48.590;11.410;2023-06-26T14:09:00;32.00;48.10
30371;DHT22;17164;48.590;11.410;2023-06-26T14:11:26;32.00;48.80
30371;DHT22;17164;48.590;11.410;2023-06-26T14:13:51;32.00;48.20
30371;DHT22;17164;48.590;11.410;2023-06-26T14:16:17;32.20;48.30
30371;DHT22;17164;48.590;11.410;2023-06-26T14:18:44;32.20;48.10
30371;DHT22;17164;48.590;11.410;2023-06-26T14:21:09;32.30;47.90
30371;DHT22;17164;48.590;11.410;2023-06-26T14:23:35;32.40;47.80
30371;DHT22;17164;48.590;11.410;2023-06-26T14:26:01;32.40;48.10
30371;DHT22;17164;48.590;11.410;2023-06-26T14:28:26;32.30;47.60
30371;DHT22;17164;48.590;11.410;2023-06-26T14:30:52;32.20;47.80
30371;DHT22;17164;48.590;11.410;2023-06-26T14:33:17;32.00;48.00
30371;DHT22;17164;48.590;11.410;2023-06-26T14:35:43;32.00;49.90
30371;DHT22;17164;48.590;11.410;2023-06-26T14:38:08;32.10;48.60
30371;DHT22;17164;48.590;11.410;2023-06-26T14:40:34;32.20;49.20
30371;DHT22;17164;48.590;11.410;2023-06-26T14:43:01;32.00;49.10
30371;DHT22;17164;48.590;11.410;2023-06-26T14:45:26;31.80;49.10
30371;DHT22;17164;48.590;11.410;2023-06-26T14:47:52;31.50;49.10
30371;DHT22;17164;48.590;11.410;2023-06-26T14:50:17;31.30;49.60
30371;DHT22;17164;48.590;11.410;2023-06-26T14:52:44;31.20;50.30
30371;DHT22;17164;48.590;11.410;2023-06-26T14:55:09;31.10;50.20
30371;DHT22;17164;48.590;11.410;2023-06-26T14:57:35;31.00;50.50
30371;DHT22;17164;48.590;11.410;2023-06-26T15:00:01;30.90;50.70
30371;DHT22;17164;48.590;11.410;2023-06-26T15:02:27;30.90;51.60
30371;DHT22;17164;48.590;11.410;2023-06-26T15:04:53;31.00;51.60
30371;DHT22;17164;48.590;11.410;2023-06-26T15:07:19;31.10;51.30
30371;DHT22;17164;48.590;11.410;2023-06-26T15:09:44;31.00;51.90
30371;DHT22;17164;48.590;11.410;2023-06-26T15:12:10;30.90;51.40
30371;DHT22;17164;48.590;11.410;2023-06-26T15:14:35;30.90;51.60
30371;DHT22;17164;48.590;11.410;2023-06-26T15:17:01;30.80;51.00
30371;DHT22;17164;48.590;11.410;2023-06-26T15:19:27;30.70;51.80
30371;DHT22;17164;48.590;11.410;2023-06-26T15:21:52;30.70;52.10
30371;DHT22;17164;48.590;11.410;2023-06-26T15:24:18;30.80;53.30
30371;DHT22;17164;48.590;11.410;2023-06-26T15:26:44;30.70;52.20